sensor_id;sensor_type;location;lat;lon;timestamp;P1;durP1;ratioP1;P2;durP2;ratioP2
9384;SDS011;4732;49.340;10.886;2024-03-06T04:00:33;26.43;;;18.33;;
9384;SDS011;4732;49.340;10.886;2024-03-06T04:02:58;24.27;;;17.63;;
9384;SDS011;4732;49.340;10.886;2024-03-06T04:05:24;26.47;;;18.43;;
9384;SDS011;4732;49.340;10.886;2024-03-06T04:07:50;25.77;;;18.80;;
9384;SDS011;4732;49.340;10.886;2024-03-06T04:10:16;24.43;;;18.03;;
9384;SDS011;4732;49.340;10.886;2024-03-06T04:12:41;23.00;;;17.77;;
9384;SDS011;4732;49.340;10.886;2024-03-06T04:15:07;25.50;;;19.13;;
9384;SDS011;4732;49.340;10.886;2024-03-06T04:17:34;27.73;;;18.43;;
9384;SDS011;4732;49.340;10.886;2024-03-06T04:20:01;25.57;;;18.47;;
9384;SDS011;4732;49.340;10.886;2024-03-06T04:22:27;25.90;;;19.47;;
9384;SDS011;4732;49.340;10.886;2024-03-06T04:24:54;25.33;;;18.60;;
9384;SDS011;4732;49.340;10.886;2024-03-06T04:27:20;27.47;;;18.60;;
9384;SDS011;4732;49.340;10.886;2024-03-06T04:29:46;26.30;;;19.37;;
9384;SDS011;4732;49.340;10.886;2024-03-06T04:32:11;24.93;;;18.17;;
9384;SDS011;4732;49.340;10.886;2024-03-06T04:34:37;25.70;;;19.47;;
9384;SDS011;4732;49.340;10.886;2024-03-06T04:37:02;30.00;;;20.37;;
9384;SDS011;4732;49.340;10.886;2024-03-06T04:39:28;25.40;;;18.07;;
9384;SDS011;4732;49.340;10.886;2024-03-06T04:41:53;28.60;;;20.20;;
9384;SDS011;4732;49.340;10.886;2024-03-06T04:44:19;29.57;;;18.80;;
9384;SDS011;4732;49.340;10.886;2024-03-06T04:46:44;27.33;;;19.90;;
9384;SDS011;4732;49.340;10.886;2024-03-06T04:49:10;27.87;;;19.10;;
9384;SDS011;4732;49.340;10.886;2024-03-06T04:51:35;30.37;;;20.00;;
9384;SDS011;4732;49.340;10.886;2024-03-06T04:54:01;27.03;;;18.17;;
9384;SDS011;4732;49.340;10.886;2024-03-06T04:56:26;30.47;;;20.20;;
9384;SDS011;4732;49.340;10.886;2024-03-06T04:58:52;31.90;;;21.10;;
9384;SDS011;4732;49.340;10.886;2024-03-06T05:01:18;30.67;;;20.87;;
9384;SDS011;4732;49.340;10.886;2024-03-06T05:03:44;29.17;;;20.50;;
9384;SDS011;4732;49.340;10.886;2024-03-06T05:06:09;34.50;;;22.17;;
9384;SDS011;4732;49.340;10.886;2024-03-06T05:08:35;28.97;;;21.13;;
9384;SDS011;4732;49.340;10.886;2024-03-06T05:11:00;33.73;;;21.40;;
9384;SDS011;4732;49.340;10.886;2024-03-06T05:13:27;29.77;;;20.00;;
9384;SDS011;4732;49.340;10.886;2024-03-06T05:15:52;29.50;;;20.83;;
9384;SDS011;4732;49.340;10.886;2024-03-06T05:18:19;29.67;;;20.83;;
9384;SDS011;4732;49.340;10.886;2024-03-06T05:20:45;27.73;;;19.70;;
9384;SDS011;4732;49.340;10.886;2024-03-06T05:23:11;31.93;;;20.07;;
9384;SDS011;4732;49.340;10.886;2024-03-06T05:25:37;30.93;;;21.87;;
9384;SDS011;4732;49.340;10.886;2024-03-06T05:28:03;32.03;;;21.43;;
9384;SDS011;4732;49.340;10.886;2024-03-06T05:30:29;29.73;;;21.27;;
9384;SDS011;4732;49.340;10.886;2024-03-06T05:32:55;35.13;;;22.00;;
9384;SDS011;4732;49.340;10.886;2024-03-06T05:35:21;34.03;;;21.27;;
9384;SDS011;4732;49.340;10.886;2024-03-06T05:37:46;30.30;;;20.47;;
9384;SDS011;4732;49.340;10.886;2024-03-06T05:40:12;33.50;;;21.13;;
9384;SDS011;4732;49.340;10.886;2024-03-06T05:42:38;32.70;;;20.90;;
9384;SDS011;4732;49.340;10.886;2024-03-06T05:45:04;30.00;;;19.77;;
9384;SDS011;4732;49.340;10.886;2024-03-06T05:47:35;32.97;;;21.77;;
9384;SDS011;4732;49.340;10.886;2024-03-06T05:50:01;27.47;;;19.23;;
9384;SDS011;4732;49.340;10.886;2024-03-06T05:52:30;27.97;;;19.23;;
9384;SDS011;4732;49.340;10.886;2024-03-06T05:54:56;26.27;;;19.60;;
9384;SDS011;4732;49.340;10.886;2024-03-06T05:57:22;33.10;;;21.03;;
9384;SDS011;4732;49.340;10.886;2024-03-06T05:59:50;31.57;;;21.47;;
9384;SDS011;4732;49.340;10.886;2024-03-06T06:02:16;29.70;;;20.80;;
9384;SDS011;4732;49.340;10.886;2024-03-06T06:04:42;29.00;;;21.03;;
9384;SDS011;4732;49.340;10.886;2024-03-06T06:07:07;28.23;;;19.23;;
9384;SDS011;4732;49.340;10.886;2024-03-06T06:09:33;28.63;;;20.27;;
9384;SDS011;4732;49.340;10.886;2024-03-06T06:11:58;26.70;;;19.30;;
9384;SDS011;4732;49.340;10.886;2024-03-06T06:14:24;32.37;;;21.57;;
9384;SDS011;4732;49.340;10.886;2024-03-06T06:16:52;33.90;;;22.13;;
9384;SDS011;4732;49.340;10.886;2024-03-06T06:19:17;32.97;;;20.53;;
9384;SDS011;4732;49.340;10.886;2024-03-06T06:21:43;30.67;;;20.27;;
9384;SDS011;4732;49.340;10.886;2024-03-06T06:24:08;27.33;;;19.43;;
9384;SDS011;4732;49.340;10.886;2024-03-06T06:26:34;33.10;;;21.77;;
9384;SDS011;4732;49.340;10.886;2024-03-06T06:28:59;30.57;;;21.53;;
9384;SDS011;4732;49.340;10.886;2024-03-06T06:31:25;35.13;;;22.70;;
9384;SDS011;4732;49.340;10.886;2024-03-06T06:33:51;37.33;;;23.83;;
9384;SDS011;4732;49.340;10.886;2024-03-06T06:36:18;34.90;;;22.27;;
9384;SDS011;4732;49.340;10.886;2024-03-06T06:38:44;32.97;;;22.23;;
9384;SDS011;4732;49.340;10.886;2024-03-06T06:41:13;36.17;;;22.60;;
9384;SDS011;4732;49.340;10.886;2024-03-06T06:43:39;33.60;;;23.03;;
9384;SDS011;4732;49.340;10.886;2024-03-06T06:46:06;35.83;;;23.63;;
9384;SDS011;4732;49.340;10.886;2024-03-06T06:48:32;35.07;;;23.17;;
9384;SDS011;4732;49.340;10.886;2024-03-06T06:50:58;36.93;;;23.47;;
9384;SDS011;4732;49.340;10.886;2024-03-06T06:53:28;31.43;;;21.23;;
9384;SDS011;4732;49.340;10.886;2024-03-06T06:55:54;33.13;;;21.83;;
9384;SDS011;4732;49.340;10.886;2024-03-06T06:58:20;37.00;;;23.13;;
9384;SDS011;4732;49.340;10.886;2024-03-06T07:00:45;35.37;;;23.50;;
9384;SDS011;4732;49.340;10.886;2024-03-06T07:03:11;41.60;;;25.87;;
9384;SDS011;4732;49.340;10.886;2024-03-06T07:05:36;42.10;;;25.87;;
9384;SDS011;4732;49.340;10.886;2024-03-06T07:08:03;39.60;;;25.40;;
9384;SDS011;4732;49.340;10.886;2024-03-06T07:10:29;47.10;;;27.33;;
9384;SDS011;4732;49.340;10.886;2024-03-06T07:12:54;45.47;;;26.67;;
9384;SDS011;4732;49.340;10.886;2024-03-06T07:15:20;40.07;;;25.93;;
9384;SDS011;4732;49.340;10.886;2024-03-06T07:17:46;48.53;;;27.43;;
9384;SDS011;4732;49.340;10.886;2024-03-06T07:20:12;44.57;;;27.40;;
9384;SDS011;4732;49.340;10.886;2024-03-06T07:22:39;39.60;;;25.73;;
9384;SDS011;4732;49.340;10.886;2024-03-06T07:25:05;46.93;;;26.07;;
9384;SDS011;4732;49.340;10.886;2024-03-06T07:27:30;41.87;;;24.80;;
9384;SDS011;4732;49.340;10.886;2024-03-06T07:29:56;46.07;;;27.40;;
9384;SDS011;4732;49.340;10.886;2024-03-06T07:32:22;41.17;;;25.43;;
9384;SDS011;4732;49.340;10.886;2024-03-06T07:34:47;42.67;;;25.97;;
9384;SDS011;4732;49.340;10.886;2024-03-06T07:37:13;45.07;;;25.83;;
9384;SDS011;4732;49.340;10.886;2024-03-06T07:39:39;42.33;;;25.43;;
9384;SDS011;4732;49.340;10.886;2024-03-06T07:42:07;40.00;;;25.57;;
9384;SDS011;4732;49.340;10.886;2024-03-06T07:44:33;41.00;;;25.73;;
9384;SDS011;4732;49.340;10.886;2024-03-06T07:47:01;41.03;;;24.47;;
9384;SDS011;4732;49.340;10.886;2024-03-06T07:49:26;49.13;;;27.60;;
9384;SDS011;4732;49.340;10.886;2024-03-06T07:51:52;54.53;;;31.03;;
9384;SDS011;4732;49.340;10.886;2024-03-06T07:54:18;49.13;;;27.67;;
9384;SDS011;4732;49.340;10.886;2024-03-06T07:56:44;45.03;;;25.93;;
9384;SDS011;4732;49.340;10.886;2024-03-06T07:59:09;48.30;;;27.27;;
9384;SDS011;4732;49.340;10.886;2024-03-06T08:01:37;45.37;;;27.00;;
9384;SDS011;4732;49.340;10.886;2024-03-06T08:04:03;44.13;;;26.03;;
9384;SDS011;4732;49.340;10.886;2024-03-06T08:06:28;43.83;;;27.57;;
9384;SDS011;4732;49.340;10.886;2024-03-06T08:08:58;44.67;;;25.43;;
9384;SDS011;4732;49.340;10.886;2024-03-06T08:11:24;40.47;;;24.27;;
9384;SDS011;4732;49.340;10.886;2024-03-06T08:13:50;39.47;;;24.10;;
9384;SDS011;4732;49.340;10.886;2024-03-06T08:16:21;43.67;;;24.67;;
9384;SDS011;4732;49.340;10.886;2024-03-06T08:18:47;39.50;;;23.73;;
9384;SDS011;4732;49.340;10.886;2024-03-06T08:21:12;39.17;;;24.57;;
9384;SDS011;4732;49.340;10.886;2024-03-06T08:23:38;42.43;;;24.43;;
9384;SDS011;4732;49.340;10.886;2024-03-06T08:26:03;37.23;;;23.17;;
9384;SDS011;4732;49.340;10.886;2024-03-06T08:28:29;41.07;;;24.03;;
9384;SDS011;4732;49.340;10.886;2024-03-06T08:30:54;38.50;;;21.93;;
9384;SDS011;4732;49.340;10.886;2024-03-06T08:33:20;38.53;;;23.60;;
9384;SDS011;4732;49.340;10.886;2024-03-06T08:35:47;36.23;;;22.47;;
9384;SDS011;4732;49.340;10.886;2024-03-06T08:38:13;37.07;;;23.30;;
9384;SDS011;4732;49.340;10.886;2024-03-06T08:40:38;34.73;;;21.43;;
9384;SDS011;4732;49.340;10.886;2024-03-06T08:43:06;41.40;;;22.20;;
9384;SDS011;4732;49.340;10.886;2024-03-06T08:45:31;38.13;;;22.03;;
9384;SDS011;4732;49.340;10.886;2024-03-06T08:47:57;38.90;;;22.60;;
9384;SDS011;4732;49.340;10.886;2024-03-06T08:50:22;35.07;;;21.03;;
9384;SDS011;4732;49.340;10.886;2024-03-06T08:52:48;35.83;;;21.90;;
9384;SDS011;4732;49.340;10.886;2024-03-06T08:55:13;32.70;;;20.70;;
9384;SDS011;4732;49.340;10.886;2024-03-06T08:57:39;34.40;;;20.70;;
9384;SDS011;4732;49.340;10.886;2024-03-06T09:00:05;33.00;;;20.73;;
9384;SDS011;4732;49.340;10.886;2024-03-06T09:02:35;34.67;;;20.77;;
9384;SDS011;4732;49.340;10.886;2024-03-06T09:05:05;32.47;;;20.40;;
9384;SDS011;4732;49.340;10.886;2024-03-06T09:07:31;34.57;;;21.00;;
9384;SDS011;4732;49.340;10.886;2024-03-06T09:10:02;31.43;;;20.30;;
9384;SDS011;4732;49.340;10.886;2024-03-06T09:12:28;35.40;;;21.10;;
9384;SDS011;4732;49.340;10.886;2024-03-06T09:14:54;31.67;;;19.93;;
9384;SDS011;4732;49.340;10.886;2024-03-06T09:17:19;32.90;;;19.47;;
9384;SDS011;4732;49.340;10.886;2024-03-06T09:19:45;31.00;;;18.33;;
9384;SDS011;4732;49.340;10.886;2024-03-06T09:22:10;31.27;;;18.97;;
9384;SDS011;4732;49.340;10.886;2024-03-06T09:24:36;30.83;;;18.03;;
9384;SDS011;4732;49.340;10.886;2024-03-06T09:27:03;30.23;;;17.70;;
9384;SDS011;4732;49.340;10.886;2024-03-06T09:29:29;29.93;;;17.47;;
9384;SDS011;4732;49.340;10.886;2024-03-06T09:31:54;28.23;;;17.47;;
9384;SDS011;4732;49.340;10.886;2024-03-06T09:34:19;27.43;;;17.40;;
9384;SDS011;4732;49.340;10.886;2024-03-06T09:36:47;29.20;;;17.20;;
9384;SDS011;4732;49.340;10.886;2024-03-06T09:39:14;27.77;;;16.90;;
9384;SDS011;4732;49.340;10.886;2024-03-06T09:41:48;29.77;;;18.17;;
9384;SDS011;4732;49.340;10.886;2024-03-06T09:44:15;29.90;;;17.67;;
9384;SDS011;4732;49.340;10.886;2024-03-06T09:46:44;33.07;;;17.73;;
9384;SDS011;4732;49.340;10.886;2024-03-06T09:49:11;28.53;;;18.50;;
9384;SDS011;4732;49.340;10.886;2024-03-06T09:51:42;26.37;;;17.10;;
9384;SDS011;4732;49.340;10.886;2024-03-06T09:54:10;26.03;;;16.77;;
9384;SDS011;4732;49.340;10.886;2024-03-06T09:56:38;29.73;;;18.07;;
9384;SDS011;4732;49.340;10.886;2024-03-06T09:59:03;29.60;;;17.67;;
9384;SDS011;4732;49.340;10.886;2024-03-06T10:01:29;27.27;;;17.73;;
9384;SDS011;4732;49.340;10.886;2024-03-06T10:03:56;30.40;;;18.50;;
9384;SDS011;4732;49.340;10.886;2024-03-06T10:06:22;26.37;;;17.20;;
9384;SDS011;4732;49.340;10.886;2024-03-06T10:08:47;25.40;;;16.83;;
9384;SDS011;4732;49.340;10.886;2024-03-06T10:11:14;29.37;;;17.83;;
9384;SDS011;4732;49.340;10.886;2024-03-06T10:13:42;30.77;;;17.30;;
9384;SDS011;4732;49.340;10.886;2024-03-06T10:16:07;30.63;;;18.10;;
9384;SDS011;4732;49.340;10.886;2024-03-06T10:18:36;28.47;;;18.03;;
9384;SDS011;4732;49.340;10.886;2024-03-06T10:21:03;28.17;;;17.10;;
9384;SDS011;4732;49.340;10.886;2024-03-06T10:23:30;29.97;;;18.30;;
9384;SDS011;4732;49.340;10.886;2024-03-06T10:25:56;29.07;;;17.47;;
9384;SDS011;4732;49.340;10.886;2024-03-06T10:28:22;27.47;;;17.73;;
9384;SDS011;4732;49.340;10.886;2024-03-06T10:30:48;28.23;;;17.07;;
9384;SDS011;4732;49.340;10.886;2024-03-06T10:33:15;29.70;;;18.47;;
9384;SDS011;4732;49.340;10.886;2024-03-06T10:35:45;30.97;;;18.50;;
9384;SDS011;4732;49.340;10.886;2024-03-06T10:38:13;30.93;;;18.17;;
9384;SDS011;4732;49.340;10.886;2024-03-06T10:40:39;28.33;;;17.70;;
9384;SDS011;4732;49.340;10.886;2024-03-06T10:43:06;31.63;;;16.95;;
9384;SDS011;4732;49.340;10.886;2024-03-06T10:45:39;28.42;;;16.88;;
9384;SDS011;4732;49.340;10.886;2024-03-06T10:48:11;26.08;;;16.83;;
9384;SDS011;4732;49.340;10.886;2024-03-06T10:50:39;26.45;;;16.92;;
9384;SDS011;4732;49.340;10.886;2024-03-06T10:53:09;26.13;;;16.15;;
9384;SDS011;4732;49.340;10.886;2024-03-06T10:55:39;26.42;;;16.45;;
9384;SDS011;4732;49.340;10.886;2024-03-06T10:58:06;25.67;;;15.38;;
9384;SDS011;4732;49.340;10.886;2024-03-06T11:00:37;25.27;;;15.75;;
9384;SDS011;4732;49.340;10.886;2024-03-06T11:03:05;24.25;;;15.05;;
9384;SDS011;4732;49.340;10.886;2024-03-06T11:05:34;25.17;;;15.88;;
9384;SDS011;4732;49.340;10.886;2024-03-06T11:08:05;27.70;;;15.05;;
9384;SDS011;4732;49.340;10.886;2024-03-06T11:10:35;22.80;;;14.70;;
9384;SDS011;4732;49.340;10.886;2024-03-06T11:13:02;23.15;;;14.85;;
9384;SDS011;4732;49.340;10.886;2024-03-06T11:15:30;23.15;;;15.02;;
9384;SDS011;4732;49.340;10.886;2024-03-06T11:17:56;22.77;;;14.32;;
9384;SDS011;4732;49.340;10.886;2024-03-06T11:20:22;25.40;;;15.10;;
9384;SDS011;4732;49.340;10.886;2024-03-06T11:28:27;23.77;;;15.95;;
9384;SDS011;4732;49.340;10.886;2024-03-06T11:31:01;26.10;;;14.88;;
9384;SDS011;4732;49.340;10.886;2024-03-06T11:33:34;23.80;;;14.98;;
9384;SDS011;4732;49.340;10.886;2024-03-06T11:36:14;26.48;;;15.82;;
9384;SDS011;4732;49.340;10.886;2024-03-06T11:38:48;26.80;;;16.23;;
9384;SDS011;4732;49.340;10.886;2024-03-06T11:41:31;22.85;;;14.77;;
9384;SDS011;4732;49.340;10.886;2024-03-06T11:44:15;24.45;;;15.55;;
9384;SDS011;4732;49.340;10.886;2024-03-06T11:46:47;24.83;;;15.70;;
9384;SDS011;4732;49.340;10.886;2024-03-06T11:49:17;27.85;;;17.02;;
9384;SDS011;4732;49.340;10.886;2024-03-06T11:51:45;29.52;;;17.25;;
9384;SDS011;4732;49.340;10.886;2024-03-06T11:54:15;24.92;;;16.30;;
9384;SDS011;4732;49.340;10.886;2024-03-06T11:56:43;25.08;;;16.02;;
9384;SDS011;4732;49.340;10.886;2024-03-06T11:59:10;28.05;;;16.48;;
9384;SDS011;4732;49.340;10.886;2024-03-06T12:01:36;27.00;;;15.93;;
9384;SDS011;4732;49.340;10.886;2024-03-06T12:04:02;24.52;;;15.50;;
9384;SDS011;4732;49.340;10.886;2024-03-06T12:06:29;26.42;;;16.73;;
9384;SDS011;4732;49.340;10.886;2024-03-06T12:08:55;25.38;;;16.83;;
9384;SDS011;4732;49.340;10.886;2024-03-06T12:11:20;24.35;;;15.07;;
9384;SDS011;4732;49.340;10.886;2024-03-06T12:13:49;25.63;;;15.35;;
9384;SDS011;4732;49.340;10.886;2024-03-06T12:16:17;22.10;;;14.50;;
9384;SDS011;4732;49.340;10.886;2024-03-06T12:18:43;23.23;;;14.90;;
9384;SDS011;4732;49.340;10.886;2024-03-06T12:21:12;23.88;;;15.10;;
9384;SDS011;4732;49.340;10.886;2024-03-06T12:23:38;24.17;;;14.93;;
9384;SDS011;4732;49.340;10.886;2024-03-06T12:43:10;22.60;;;15.57;;
9384;SDS011;4732;49.340;10.886;2024-03-06T12:45:36;23.63;;;15.15;;
9384;SDS011;4732;49.340;10.886;2024-03-06T12:48:02;25.23;;;15.45;;
9384;SDS011;4732;49.340;10.886;2024-03-06T12:50:29;20.65;;;15.10;;
9384;SDS011;4732;49.340;10.886;2024-03-06T12:52:55;23.15;;;13.88;;
9384;SDS011;4732;49.340;10.886;2024-03-06T12:55:21;22.83;;;13.52;;
9384;SDS011;4732;49.340;10.886;2024-03-06T12:57:46;22.52;;;14.18;;
9384;SDS011;4732;49.340;10.886;2024-03-06T13:00:12;23.15;;;14.65;;
9384;SDS011;4732;49.340;10.886;2024-03-06T13:02:42;24.73;;;15.05;;
9384;SDS011;4732;49.340;10.886;2024-03-06T13:05:09;24.85;;;16.10;;
9384;SDS011;4732;49.340;10.886;2024-03-06T13:07:35;27.55;;;15.90;;
9384;SDS011;4732;49.340;10.886;2024-03-06T13:10:01;27.55;;;14.98;;
9384;SDS011;4732;49.340;10.886;2024-03-06T13:12:27;20.50;;;13.75;;
9384;SDS011;4732;49.340;10.886;2024-03-06T13:14:53;30.75;;;17.25;;
9384;SDS011;4732;49.340;10.886;2024-03-06T13:17:18;20.00;;;13.57;;
9384;SDS011;4732;49.340;10.886;2024-03-06T13:19:44;18.85;;;13.27;;
9384;SDS011;4732;49.340;10.886;2024-03-06T13:22:10;19.48;;;13.10;;
9384;SDS011;4732;49.340;10.886;2024-03-06T13:24:35;23.33;;;14.20;;
9384;SDS011;4732;49.340;10.886;2024-03-06T13:27:01;19.95;;;12.63;;
9384;SDS011;4732;49.340;10.886;2024-03-06T13:29:27;21.25;;;13.48;;
9384;SDS011;4732;49.340;10.886;2024-03-06T13:31:52;22.38;;;14.73;;
9384;SDS011;4732;49.340;10.886;2024-03-06T13:34:18;27.52;;;17.17;;
9384;SDS011;4732;49.340;10.886;2024-03-06T13:36:43;25.42;;;14.95;;
9384;SDS011;4732;49.340;10.886;2024-03-06T13:39:09;19.38;;;12.35;;
9384;SDS011;4732;49.340;10.886;2024-03-06T13:41:34;22.08;;;15.13;;
9384;SDS011;4732;49.340;10.886;2024-03-06T13:44:00;27.38;;;18.10;;
9384;SDS011;4732;49.340;10.886;2024-03-06T13:46:25;16.77;;;10.88;;
9384;SDS011;4732;49.340;10.886;2024-03-06T13:48:51;18.65;;;11.77;;
9384;SDS011;4732;49.340;10.886;2024-03-06T13:51:16;21.25;;;12.73;;
9384;SDS011;4732;49.340;10.886;2024-03-06T13:53:42;19.98;;;13.80;;
9384;SDS011;4732;49.340;10.886;2024-03-06T13:56:07;20.70;;;13.93;;
9384;SDS011;4732;49.340;10.886;2024-03-06T13:58:33;19.08;;;12.88;;
9384;SDS011;4732;49.340;10.886;2024-03-06T14:00:59;19.95;;;12.77;;
9384;SDS011;4732;49.340;10.886;2024-03-06T14:03:24;19.67;;;12.65;;
9384;SDS011;4732;49.340;10.886;2024-03-06T14:05:50;18.42;;;11.90;;
9384;SDS011;4732;49.340;10.886;2024-03-06T14:08:16;23.33;;;14.32;;
9384;SDS011;4732;49.340;10.886;2024-03-06T14:10:42;21.17;;;13.63;;
9384;SDS011;4732;49.340;10.886;2024-03-06T14:13:08;19.85;;;13.70;;
9384;SDS011;4732;49.340;10.886;2024-03-06T14:15:34;19.60;;;13.88;;
9384;SDS011;4732;49.340;10.886;2024-03-06T14:18:00;21.73;;;13.52;;
9384;SDS011;4732;49.340;10.886;2024-03-06T14:20:27;22.75;;;13.20;;
9384;SDS011;4732;49.340;10.886;2024-03-06T14:22:53;21.52;;;13.75;;
9384;SDS011;4732;49.340;10.886;2024-03-06T14:25:18;18.50;;;13.05;;
9384;SDS011;4732;49.340;10.886;2024-03-06T14:27:44;17.83;;;12.55;;
9384;SDS011;4732;49.340;10.886;2024-03-06T14:30:11;19.33;;;13.38;;
9384;SDS011;4732;49.340;10.886;2024-03-06T14:32:37;20.15;;;13.93;;
9384;SDS011;4732;49.340;10.886;2024-03-06T14:35:03;22.70;;;13.52;;
9384;SDS011;4732;49.340;10.886;2024-03-06T14:37:29;21.45;;;14.25;;
9384;SDS011;4732;49.340;10.886;2024-03-06T14:39:55;22.08;;;13.32;;
9384;SDS011;4732;49.340;10.886;2024-03-06T14:42:20;24.10;;;13.50;;
9384;SDS011;4732;49.340;10.886;2024-03-06T14:44:46;22.83;;;13.90;;
9384;SDS011;4732;49.340;10.886;2024-03-06T14:47:12;23.48;;;13.27;;
9384;SDS011;4732;49.340;10.886;2024-03-06T14:49:39;20.48;;;12.65;;
9384;SDS011;4732;49.340;10.886;2024-03-06T14:52:07;20.95;;;14.10;;
9384;SDS011;4732;49.340;10.886;2024-03-06T14:54:32;22.13;;;14.20;;
9384;SDS011;4732;49.340;10.886;2024-03-06T14:56:58;24.60;;;14.82;;
9384;SDS011;4732;49.340;10.886;2024-03-06T14:59:23;21.38;;;13.25;;
9384;SDS011;4732;49.340;10.886;2024-03-06T15:01:49;19.50;;;12.82;;
9384;SDS011;4732;49.340;10.886;2024-03-06T15:04:16;20.67;;;12.75;;
9384;SDS011;4732;49.340;10.886;2024-03-06T15:06:42;19.38;;;13.68;;
9384;SDS011;4732;49.340;10.886;2024-03-06T15:09:07;19.75;;;13.68;;
9384;SDS011;4732;49.340;10.886;2024-03-06T15:11:38;19.90;;;13.23;;
9384;SDS011;4732;49.340;10.886;2024-03-06T15:14:04;20.08;;;12.77;;
9384;SDS011;4732;49.340;10.886;2024-03-06T15:16:32;19.38;;;12.60;;
9384;SDS011;4732;49.340;10.886;2024-03-06T15:18:58;20.80;;;13.68;;
9384;SDS011;4732;49.340;10.886;2024-03-06T15:21:24;21.27;;;13.15;;
9384;SDS011;4732;49.340;10.886;2024-03-06T15:23:49;17.85;;;12.60;;
9384;SDS011;4732;49.340;10.886;2024-03-06T15:26:16;22.98;;;15.15;;
9384;SDS011;4732;49.340;10.886;2024-03-06T15:28:41;21.27;;;14.50;;
9384;SDS011;4732;49.340;10.886;2024-03-06T15:31:07;19.83;;;13.98;;
9384;SDS011;4732;49.340;10.886;2024-03-06T15:33:32;24.95;;;16.13;;
9384;SDS011;4732;49.340;10.886;2024-03-06T15:35:58;22.20;;;14.38;;
9384;SDS011;4732;49.340;10.886;2024-03-06T15:38:25;23.23;;;15.07;;
9384;SDS011;4732;49.340;10.886;2024-03-06T15:40:52;21.98;;;15.57;;
9384;SDS011;4732;49.340;10.886;2024-03-06T15:43:18;21.17;;;14.48;;
9384;SDS011;4732;49.340;10.886;2024-03-06T15:45:43;20.35;;;13.73;;
9384;SDS011;4732;49.340;10.886;2024-03-06T15:48:09;22.77;;;13.80;;
9384;SDS011;4732;49.340;10.886;2024-03-06T15:50:38;19.02;;;13.48;;
9384;SDS011;4732;49.340;10.886;2024-03-06T15:53:07;19.70;;;14.35;;
9384;SDS011;4732;49.340;10.886;2024-03-06T15:55:34;18.35;;;12.75;;
9384;SDS011;4732;49.340;10.886;2024-03-06T15:58:02;20.75;;;14.02;;
9384;SDS011;4732;49.340;10.886;2024-03-06T16:00:28;20.30;;;13.35;;
9384;SDS011;4732;49.340;10.886;2024-03-06T16:02:55;20.98;;;14.63;;
9384;SDS011;4732;49.340;10.886;2024-03-06T16:05:20;19.92;;;14.00;;
9384;SDS011;4732;49.340;10.886;2024-03-06T16:07:46;22.50;;;14.98;;
9384;SDS011;4732;49.340;10.886;2024-03-06T16:10:11;23.52;;;15.77;;
9384;SDS011;4732;49.340;10.886;2024-03-06T16:12:37;24.27;;;13.88;;
9384;SDS011;4732;49.340;10.886;2024-03-06T16:15:03;22.42;;;14.50;;
9384;SDS011;4732;49.340;10.886;2024-03-06T16:17:29;23.33;;;15.02;;
9384;SDS011;4732;49.340;10.886;2024-03-06T16:19:56;23.63;;;13.90;;
9384;SDS011;4732;49.340;10.886;2024-03-06T16:22:21;25.23;;;16.52;;
9384;SDS011;4732;49.340;10.886;2024-03-06T16:24:47;33.22;;;20.70;;
9384;SDS011;4732;49.340;10.886;2024-03-06T16:27:13;20.40;;;13.95;;
9384;SDS011;4732;49.340;10.886;2024-03-06T16:29:38;23.83;;;15.60;;
9384;SDS011;4732;49.340;10.886;2024-03-06T16:32:04;20.83;;;14.20;;
9384;SDS011;4732;49.340;10.886;2024-03-06T16:34:30;19.17;;;12.95;;
9384;SDS011;4732;49.340;10.886;2024-03-06T16:36:57;24.40;;;13.93;;
9384;SDS011;4732;49.340;10.886;2024-03-06T16:39:23;24.42;;;13.80;;
9384;SDS011;4732;49.340;10.886;2024-03-06T16:41:48;19.38;;;12.63;;
9384;SDS011;4732;49.340;10.886;2024-03-06T16:44:14;20.15;;;12.88;;
9384;SDS011;4732;49.340;10.886;2024-03-06T16:46:39;20.00;;;13.07;;
9384;SDS011;4732;49.340;10.886;2024-03-06T16:49:05;20.45;;;13.00;;
9384;SDS011;4732;49.340;10.886;2024-03-06T16:51:32;21.92;;;13.88;;
9384;SDS011;4732;49.340;10.886;2024-03-06T16:53:58;20.20;;;13.43;;
9384;SDS011;4732;49.340;10.886;2024-03-06T16:56:23;25.73;;;14.57;;
9384;SDS011;4732;49.340;10.886;2024-03-06T16:58:49;32.72;;;20.30;;
9384;SDS011;4732;49.340;10.886;2024-03-06T17:01:14;34.47;;;21.17;;
9384;SDS011;4732;49.340;10.886;2024-03-06T17:03:40;21.80;;;14.60;;
9384;SDS011;4732;49.340;10.886;2024-03-06T17:06:05;20.02;;;13.30;;
9384;SDS011;4732;49.340;10.886;2024-03-06T17:08:31;22.50;;;15.00;;
9384;SDS011;4732;49.340;10.886;2024-03-06T17:10:57;19.33;;;13.95;;
9384;SDS011;4732;49.340;10.886;2024-03-06T17:13:23;20.52;;;13.68;;
9384;SDS011;4732;49.340;10.886;2024-03-06T17:15:48;20.02;;;14.05;;
9384;SDS011;4732;49.340;10.886;2024-03-06T17:18:15;20.65;;;13.25;;
9384;SDS011;4732;49.340;10.886;2024-03-06T17:20:40;20.85;;;14.85;;
9384;SDS011;4732;49.340;10.886;2024-03-06T17:23:07;23.17;;;15.63;;
9384;SDS011;4732;49.340;10.886;2024-03-06T17:25:32;20.38;;;13.82;;
9384;SDS011;4732;49.340;10.886;2024-03-06T17:27:59;19.60;;;13.95;;
9384;SDS011;4732;49.340;10.886;2024-03-06T17:30:25;23.20;;;15.00;;
9384;SDS011;4732;49.340;10.886;2024-03-06T17:32:52;22.73;;;15.15;;
9384;SDS011;4732;49.340;10.886;2024-03-06T17:35:18;23.33;;;15.63;;
9384;SDS011;4732;49.340;10.886;2024-03-06T17:37:43;23.58;;;15.05;;
9384;SDS011;4732;49.340;10.886;2024-03-06T17:40:09;20.98;;;14.57;;
9384;SDS011;4732;49.340;10.886;2024-03-06T17:42:36;24.83;;;15.88;;
9384;SDS011;4732;49.340;10.886;2024-03-06T17:45:03;22.05;;;15.02;;
9384;SDS011;4732;49.340;10.886;2024-03-06T17:47:32;21.17;;;14.23;;
9384;SDS011;4732;49.340;10.886;2024-03-06T17:49:59;20.77;;;14.30;;
9384;SDS011;4732;49.340;10.886;2024-03-06T17:52:25;20.70;;;14.77;;
9384;SDS011;4732;49.340;10.886;2024-03-06T17:54:50;20.90;;;13.88;;
9384;SDS011;4732;49.340;10.886;2024-03-06T17:57:16;20.98;;;14.57;;
9384;SDS011;4732;49.340;10.886;2024-03-06T17:59:41;20.75;;;14.38;;
9384;SDS011;4732;49.340;10.886;2024-03-06T18:02:07;20.17;;;14.05;;
9384;SDS011;4732;49.340;10.886;2024-03-06T18:04:33;19.23;;;13.00;;
9384;SDS011;4732;49.340;10.886;2024-03-06T18:06:58;18.23;;;13.43;;
9384;SDS011;4732;49.340;10.886;2024-03-06T18:09:24;19.33;;;14.18;;
9384;SDS011;4732;49.340;10.886;2024-03-06T18:11:49;26.80;;;14.75;;
9384;SDS011;4732;49.340;10.886;2024-03-06T18:14:15;24.38;;;13.98;;
9384;SDS011;4732;49.340;10.886;2024-03-06T18:16:42;22.33;;;14.15;;
9384;SDS011;4732;49.340;10.886;2024-03-06T18:19:11;19.27;;;13.15;;
9384;SDS011;4732;49.340;10.886;2024-03-06T18:21:40;22.27;;;14.23;;
9384;SDS011;4732;49.340;10.886;2024-03-06T18:24:07;20.95;;;14.73;;
9384;SDS011;4732;49.340;10.886;2024-03-06T18:26:38;21.10;;;14.45;;
9384;SDS011;4732;49.340;10.886;2024-03-06T18:29:04;19.73;;;13.93;;
9384;SDS011;4732;49.340;10.886;2024-03-06T18:31:30;22.48;;;14.32;;
9384;SDS011;4732;49.340;10.886;2024-03-06T18:33:55;21.55;;;14.07;;
9384;SDS011;4732;49.340;10.886;2024-03-06T18:36:21;19.40;;;13.57;;
9384;SDS011;4732;49.340;10.886;2024-03-06T18:38:46;19.53;;;13.70;;
9384;SDS011;4732;49.340;10.886;2024-03-06T18:41:12;18.77;;;13.40;;
9384;SDS011;4732;49.340;10.886;2024-03-06T18:43:39;16.10;;;12.43;;
9384;SDS011;4732;49.340;10.886;2024-03-06T18:46:05;19.48;;;14.18;;
9384;SDS011;4732;49.340;10.886;2024-03-06T18:48:31;23.77;;;15.27;;
9384;SDS011;4732;49.340;10.886;2024-03-06T18:50:56;18.17;;;12.97;;